createdAt,value
2018-09-19T00:00:38.491Z,1005.23
2018-09-19T00:01:38.442Z,1005.26
2018-09-19T00:02:38.393Z,1005.24
2018-09-19T00:03:38.375Z,1005.29
2018-09-19T00:04:38.295Z,1005.29
2018-09-19T00:05:38.256Z,1005.30
2018-09-19T00:06:38.212Z,1005.22
2018-09-19T00:07:38.160Z,1005.24
2018-09-19T00:08:38.135Z,1005.25
2018-09-19T00:09:38.059Z,1005.26
2018-09-19T00:10:38.016Z,1005.27
2018-09-19T00:11:37.968Z,1005.27
2018-09-19T00:12:37.925Z,1005.29
2018-09-19T00:13:37.896Z,1005.25
2018-09-19T00:14:37.831Z,1005.28
2018-09-19T00:15:37.776Z,1005.26
2018-09-19T00:16:37.752Z,1005.30
2018-09-19T00:17:37.677Z,1005.30
2018-09-19T00:18:37.658Z,1005.28
2018-09-19T00:19:37.587Z,1005.30
2018-09-19T00:20:37.539Z,1005.28
2018-09-19T00:21:37.492Z,1005.34
2018-09-19T00:22:37.442Z,1005.31
2018-09-19T00:23:37.428Z,1005.33
2018-09-19T00:24:37.349Z,1005.30
2018-09-19T00:25:37.296Z,1005.30
2018-09-19T00:26:37.257Z,1005.32
2018-09-19T00:27:37.214Z,1005.32
2018-09-19T00:28:37.193Z,1005.30
2018-09-19T00:29:37.114Z,1005.35
2018-09-19T00:30:37.062Z,1005.29
2018-09-19T00:31:37.015Z,1005.32
2018-09-19T00:32:36.966Z,1005.33
2018-09-19T00:33:36.917Z,1005.32
2018-09-19T00:34:36.893Z,1005.33
2018-09-19T00:35:36.834Z,1005.36
2018-09-19T00:36:36.775Z,1005.34
2018-09-19T00:37:36.730Z,1005.37
2018-09-19T00:38:36.682Z,1005.33
2018-09-19T00:39:36.660Z,1005.36
2018-09-19T00:40:36.583Z,1005.36
2018-09-19T00:41:36.561Z,1005.36
2018-09-19T00:42:36.487Z,1005.39
2018-09-19T00:43:36.442Z,1005.41
2018-09-19T00:44:36.435Z,1005.39
2018-09-19T00:45:36.346Z,1005.40
2018-09-19T00:46:36.294Z,1005.39
2018-09-19T00:47:36.253Z,1005.45
2018-09-19T00:48:36.207Z,1005.40
2018-09-19T00:49:36.179Z,1005.42
2018-09-19T00:50:36.108Z,1005.42
2018-09-19T00:51:36.057Z,1005.45
2018-09-19T00:52:36.013Z,1005.41
2018-09-19T00:53:35.968Z,1005.45
2018-09-19T00:54:35.940Z,1005.43
2018-09-19T00:55:35.869Z,1005.47
2018-09-19T00:56:35.820Z,1005.45
2018-09-19T00:57:35.774Z,1005.44
2018-09-19T00:58:35.722Z,1005.43
2018-09-19T00:59:35.700Z,1005.41
2018-09-19T01:00:35.636Z,1005.39
2018-09-19T01:01:35.577Z,1005.41
2018-09-19T01:02:35.536Z,1005.44
2018-09-19T01:03:35.486Z,1005.41
2018-09-19T01:04:35.464Z,1005.42
2018-09-19T01:05:35.391Z,1005.42
2018-09-19T01:06:35.340Z,1005.44
2018-09-19T01:07:35.305Z,1005.42
2018-09-19T01:08:35.257Z,1005.41
2018-09-19T01:09:35.220Z,1005.46
2018-09-19T01:10:35.146Z,1005.45
2018-09-19T01:11:35.099Z,1005.49
2018-09-19T01:12:35.058Z,1005.50
2018-09-19T01:13:35.006Z,1005.51
2018-09-19T01:14:34.989Z,1005.50
2018-09-19T01:15:34.910Z,1005.51
2018-09-19T01:16:34.863Z,1005.51
2018-09-19T01:17:34.816Z,1005.53
2018-09-19T01:18:34.772Z,1005.48
2018-09-19T01:19:34.718Z,1005.51
2018-09-19T01:20:34.693Z,1005.49
2018-09-19T01:21:34.623Z,1005.50
2018-09-19T01:22:34.577Z,1005.51
2018-09-19T01:23:34.528Z,1005.52
2018-09-19T01:24:34.478Z,1005.57
2018-09-19T01:25:34.453Z,1005.57
2018-09-19T01:26:34.390Z,1005.58
2018-09-19T01:27:34.338Z,1005.61
2018-09-19T01:28:34.289Z,1005.62
2018-09-19T01:29:34.245Z,1005.66
2018-09-19T01:30:34.215Z,1005.64
2018-09-19T01:31:34.141Z,1005.66
2018-09-19T01:32:34.093Z,1005.65
2018-09-19T01:33:34.050Z,1005.69
2018-09-19T01:34:34.000Z,1005.67
2018-09-19T01:35:33.975Z,1005.66
2018-09-19T01:36:33.904Z,1005.63
2018-09-19T01:37:33.855Z,1005.65
2018-09-19T01:38:33.810Z,1005.64
2018-09-19T01:39:33.757Z,1005.62
2018-09-19T01:40:33.737Z,1005.63
2018-09-19T01:41:33.663Z,1005.67
2018-09-19T01:42:33.619Z,1005.74
2018-09-19T01:43:33.571Z,1005.74
2018-09-19T01:44:33.518Z,1005.77
2018-09-19T01:45:33.496Z,1005.75
2018-09-19T01:46:33.419Z,1005.75
2018-09-19T01:47:33.378Z,1005.76
2018-09-19T01:48:33.332Z,1005.74
2018-09-19T01:49:33.280Z,1005.74
2018-09-19T01:50:33.256Z,1005.76
2018-09-19T01:51:33.181Z,1005.76
2018-09-19T01:52:33.136Z,1005.78
2018-09-19T01:53:33.089Z,1005.75
2018-09-19T01:54:33.039Z,1005.76
2018-09-19T01:55:33.018Z,1005.80
2018-09-19T01:56:32.935Z,1005.80
2018-09-19T01:57:32.892Z,1005.79
2018-09-19T01:58:32.844Z,1005.82
2018-09-19T01:59:32.796Z,1005.85
2018-09-19T02:00:32.787Z,1005.87
2018-09-19T02:01:32.698Z,1005.87
2018-09-19T02:02:32.651Z,1005.89
2018-09-19T02:03:32.608Z,1005.91
2018-09-19T02:04:32.567Z,1005.94
2018-09-19T02:05:32.518Z,1005.95
2018-09-19T02:06:32.523Z,1005.94
2018-09-19T02:07:32.425Z,1005.96
2018-09-19T02:08:32.370Z,1005.94
2018-09-19T02:09:32.309Z,1005.92
2018-09-19T02:10:32.268Z,1005.91
2018-09-19T02:11:32.243Z,1005.91
2018-09-19T02:12:32.172Z,1005.95
2018-09-19T02:13:32.119Z,1005.90
2018-09-19T02:14:32.074Z,1005.91
2018-09-19T02:15:32.024Z,1005.90
2018-09-19T02:16:32.000Z,1005.92
2018-09-19T02:17:31.927Z,1005.93
2018-09-19T02:18:31.882Z,1005.93
2018-09-19T02:19:31.856Z,1005.95
2018-09-19T02:20:31.791Z,1005.96
2018-09-19T02:21:31.789Z,1005.98
2018-09-19T02:22:31.684Z,1006.03
2018-09-19T02:23:31.636Z,1006.01
2018-09-19T02:24:31.589Z,1006.01
2018-09-19T02:25:31.539Z,1006.01
2018-09-19T02:26:31.516Z,1006.02
2018-09-19T02:27:31.443Z,1006.03
2018-09-19T02:28:31.401Z,1006.05
2018-09-19T02:29:31.351Z,1005.99
2018-09-19T02:30:31.300Z,1006.00
2018-09-19T02:31:31.292Z,1005.97
2018-09-19T02:32:31.228Z,1006.01
2018-09-19T02:33:31.157Z,1005.98
2018-09-19T02:34:31.106Z,1006.01
2018-09-19T02:35:31.058Z,1006.02
2018-09-19T02:36:31.039Z,1006.06
2018-09-19T02:37:30.959Z,1006.06
2018-09-19T02:38:30.912Z,1006.07
2018-09-19T02:39:30.867Z,1006.07
2018-09-19T02:40:30.823Z,1006.09
2018-09-19T02:41:30.815Z,1006.10
2018-09-19T02:42:30.724Z,1006.07
2018-09-19T02:43:30.671Z,1006.08
2018-09-19T02:44:30.624Z,1006.07
2018-09-19T02:45:30.578Z,1006.10
2018-09-19T02:46:30.530Z,1006.10
2018-09-19T02:47:30.506Z,1006.06
2018-09-19T02:48:30.429Z,1006.06
2018-09-19T02:49:30.377Z,1006.07
2018-09-19T02:50:30.350Z,1006.09
2018-09-19T02:51:30.284Z,1006.08
2018-09-19T02:52:30.260Z,1006.09
2018-09-19T02:53:30.190Z,1006.13
2018-09-19T02:54:30.146Z,1006.15
2018-09-19T02:55:30.099Z,1006.22
2018-09-19T02:56:30.040Z,1006.21
2018-09-19T02:57:30.022Z,1006.21
2018-09-19T02:58:29.990Z,1006.23
2018-09-19T02:59:29.903Z,1006.23
2018-09-19T03:00:29.853Z,1006.27
2018-09-19T03:01:29.802Z,1006.25
2018-09-19T03:02:29.794Z,1006.25
2018-09-19T03:03:29.710Z,1006.26
2018-09-19T03:04:29.659Z,1006.23
2018-09-19T03:05:29.612Z,1006.25
2018-09-19T03:06:29.562Z,1006.24
2018-09-19T03:07:29.541Z,1006.21
2018-09-19T03:08:29.468Z,1006.25
2018-09-19T03:09:29.417Z,1006.23
2018-09-19T03:10:29.374Z,1006.24
2018-09-19T03:11:29.319Z,1006.22
2018-09-19T03:12:29.300Z,1006.22
2018-09-19T03:13:29.224Z,1006.24
2018-09-19T03:14:29.176Z,1006.25
2018-09-19T03:15:29.129Z,1006.24
2018-09-19T03:16:29.079Z,1006.25
2018-09-19T03:17:29.161Z,1006.22
2018-09-19T03:18:28.987Z,1006.20
2018-09-19T03:19:28.936Z,1006.18
2018-09-19T03:20:28.887Z,1006.22
2018-09-19T03:21:28.839Z,1006.20
2018-09-19T03:22:28.819Z,1006.20
2018-09-19T03:23:28.745Z,1006.21
2018-09-19T03:24:28.702Z,1006.20
2018-09-19T03:25:28.648Z,1006.21
2018-09-19T03:26:28.596Z,1006.20
2018-09-19T03:27:28.575Z,1006.19
2018-09-19T03:28:28.504Z,1006.22
2018-09-19T03:29:28.455Z,1006.22
2018-09-19T03:30:28.409Z,1006.26
2018-09-19T03:31:28.361Z,1006.22
2018-09-19T03:32:28.350Z,1006.20
2018-09-19T03:33:28.260Z,1006.18
2018-09-19T03:34:28.222Z,1006.18
2018-09-19T03:35:28.262Z,1006.18
2018-09-19T03:36:28.120Z,1006.16
2018-09-19T03:37:28.065Z,1006.16
2018-09-19T03:38:28.041Z,1006.19
2018-09-19T03:39:27.971Z,1006.21
2018-09-19T03:40:27.922Z,1006.21
2018-09-19T03:41:27.873Z,1006.22
2018-09-19T03:42:27.829Z,1006.21
2018-09-19T03:43:27.807Z,1006.19
2018-09-19T03:44:27.730Z,1006.22
2018-09-19T03:45:27.676Z,1006.18
2018-09-19T03:46:27.631Z,1006.23
2018-09-19T03:47:27.582Z,1006.24
2018-09-19T03:48:27.570Z,1006.22
2018-09-19T03:49:27.491Z,1006.20
2018-09-19T03:50:27.452Z,1006.22
2018-09-19T03:51:27.399Z,1006.23
2018-09-19T03:52:27.341Z,1006.21
2018-09-19T03:53:27.316Z,1006.21
2018-09-19T03:54:27.252Z,1006.21
2018-09-19T03:55:27.200Z,1006.20
2018-09-19T03:56:27.152Z,1006.17
2018-09-19T03:57:27.101Z,1006.17
2018-09-19T03:58:27.080Z,1006.12
2018-09-19T03:59:27.006Z,1006.16
2018-09-19T04:00:26.956Z,1006.16
2018-09-19T04:01:26.908Z,1006.15
2018-09-19T04:02:26.866Z,1006.16
2018-09-19T04:03:26.839Z,1006.18
2018-09-19T04:04:26.761Z,1006.17
2018-09-19T04:05:26.720Z,1006.17
2018-09-19T04:06:26.663Z,1006.14
2018-09-19T04:07:26.617Z,1006.16
2018-09-19T04:08:26.593Z,1006.18
2018-09-19T04:09:26.526Z,1006.17
2018-09-19T04:10:26.474Z,1006.19
2018-09-19T04:11:26.421Z,1006.22
2018-09-19T04:12:26.373Z,1006.25
2018-09-19T04:13:26.354Z,1006.29
2018-09-19T04:14:26.282Z,1006.29
2018-09-19T04:15:26.241Z,1006.28
2018-09-19T04:16:26.184Z,1006.30
2018-09-19T04:17:26.131Z,1006.30
2018-09-19T04:18:26.134Z,1006.27
2018-09-19T04:19:26.038Z,1006.30
2018-09-19T04:20:25.989Z,1006.28
2018-09-19T04:21:25.941Z,1006.33
2018-09-19T04:22:25.888Z,1006.29
2018-09-19T04:23:25.842Z,1006.32
2018-09-19T04:24:25.825Z,1006.32
2018-09-19T04:25:25.745Z,1006.32
2018-09-19T04:26:25.697Z,1006.31
2018-09-19T04:27:25.654Z,1006.30
2018-09-19T04:28:25.597Z,1006.32
2018-09-19T04:29:25.581Z,1006.31
2018-09-19T04:30:25.501Z,1006.28
2018-09-19T04:31:25.453Z,1006.24
2018-09-19T04:32:25.441Z,1006.23
2018-09-19T04:33:25.355Z,1006.26
2018-09-19T04:34:25.334Z,1006.28
2018-09-19T04:35:25.260Z,1006.26
2018-09-19T04:36:25.212Z,1006.26
2018-09-19T04:37:25.167Z,1006.27
2018-09-19T04:38:25.113Z,1006.30
2018-09-19T04:39:25.089Z,1006.33
2018-09-19T04:40:25.019Z,1006.36
2018-09-19T04:41:24.971Z,1006.33
2018-09-19T04:42:24.931Z,1006.36
2018-09-19T04:43:24.869Z,1006.34
2018-09-19T04:44:24.849Z,1006.35
2018-09-19T04:45:24.773Z,1006.37
2018-09-19T04:46:24.730Z,1006.39
2018-09-19T04:47:24.677Z,1006.36
2018-09-19T04:48:24.629Z,1006.40
2018-09-19T04:49:24.609Z,1006.37
2018-09-19T04:50:24.553Z,1006.38
2018-09-19T04:51:24.520Z,1006.37
2018-09-19T04:52:24.442Z,1006.41
2018-09-19T04:53:24.407Z,1006.46
2018-09-19T04:54:24.368Z,1006.43
2018-09-19T04:55:24.305Z,1006.47
2018-09-19T04:56:24.245Z,1006.54
2018-09-19T04:57:24.197Z,1006.58
2018-09-19T04:58:24.147Z,1006.55
2018-09-19T04:59:24.133Z,1006.57
2018-09-19T05:00:24.049Z,1006.57
2018-09-19T05:01:24.000Z,1006.58
2018-09-19T05:02:23.952Z,1006.59
2018-09-19T05:03:23.907Z,1006.56
2018-09-19T05:04:23.856Z,1006.58
2018-09-19T05:05:23.829Z,1006.59
2018-09-19T05:06:23.760Z,1006.58
2018-09-19T05:07:23.767Z,1006.57
2018-09-19T05:08:23.668Z,1006.58
2018-09-19T05:09:23.616Z,1006.60
2018-09-19T05:10:23.588Z,1006.61
2018-09-19T05:11:23.582Z,1006.59
2018-09-19T05:12:23.467Z,1006.62
2018-09-19T05:13:23.421Z,1006.59
2018-09-19T05:14:23.372Z,1006.56
2018-09-19T05:15:23.362Z,1006.54
2018-09-19T05:16:23.277Z,1006.58
2018-09-19T05:17:23.238Z,1006.57
2018-09-19T05:18:23.182Z,1006.60
2018-09-19T05:19:23.131Z,1006.61
2018-09-19T05:20:23.116Z,1006.62
2018-09-19T05:21:23.031Z,1006.63
2018-09-19T05:22:22.986Z,1006.61
2018-09-19T05:23:22.947Z,1006.59
2018-09-19T05:24:22.895Z,1006.62
2018-09-19T05:25:22.878Z,1006.60
2018-09-19T05:26:22.789Z,1006.59
2018-09-19T05:27:22.741Z,1006.60
2018-09-19T05:28:22.690Z,1006.58
2018-09-19T05:29:22.640Z,1006.57
2018-09-19T05:30:22.620Z,1006.54
2018-09-19T05:31:22.552Z,1006.56
2018-09-19T05:32:22.513Z,1006.56
2018-09-19T05:33:22.467Z,1006.53
2018-09-19T05:34:22.403Z,1006.51
2018-09-19T05:35:22.403Z,1006.49
2018-09-19T05:36:22.306Z,1006.50
2018-09-19T05:37:22.255Z,1006.51
2018-09-19T05:38:22.208Z,1006.47
2018-09-19T05:39:22.167Z,1006.49
2018-09-19T05:40:22.155Z,1006.52
2018-09-19T05:41:22.063Z,1006.55
2018-09-19T05:42:22.014Z,1006.51
2018-09-19T05:43:21.967Z,1006.56
2018-09-19T05:44:21.918Z,1006.55
2018-09-19T05:45:21.900Z,1006.55
2018-09-19T05:46:21.874Z,1006.56
2018-09-19T05:47:21.770Z,1006.56
2018-09-19T05:48:21.726Z,1006.60
2018-09-19T05:49:21.680Z,1006.61
2018-09-19T05:50:21.652Z,1006.62
2018-09-19T05:51:21.582Z,1006.64
2018-09-19T05:52:21.531Z,1006.63
2018-09-19T05:53:21.479Z,1006.69
2018-09-19T05:54:21.451Z,1006.66
2018-09-19T05:55:21.415Z,1006.66
2018-09-19T05:56:21.334Z,1006.68
2018-09-19T05:57:21.289Z,1006.72
2018-09-19T05:58:21.237Z,1006.70
2018-09-19T05:59:21.195Z,1006.73
2018-09-19T06:00:21.170Z,1006.72
2018-09-19T06:01:21.097Z,1006.78
2018-09-19T06:02:21.049Z,1006.77
2018-09-19T06:03:21.001Z,1006.74
2018-09-19T06:04:20.956Z,1006.72
2018-09-19T06:05:20.938Z,1006.70
2018-09-19T06:06:20.859Z,1006.76
2018-09-19T06:07:20.808Z,1006.74
2018-09-19T06:08:20.755Z,1006.72
2018-09-19T06:09:20.710Z,1006.71
2018-09-19T06:10:20.701Z,1006.74
2018-09-19T06:11:20.608Z,1006.77
2018-09-19T06:12:20.561Z,1006.79
2018-09-19T06:13:20.514Z,1006.80
2018-09-19T06:14:20.467Z,1006.82
2018-09-19T06:15:20.436Z,1006.84
2018-09-19T06:16:20.398Z,1006.82
2018-09-19T06:17:20.396Z,1006.85
2018-09-19T06:18:20.277Z,1006.83
2018-09-19T06:19:20.238Z,1006.82
2018-09-19T06:20:20.180Z,1006.82
2018-09-19T06:21:20.155Z,1006.83
2018-09-19T06:22:20.079Z,1006.80
2018-09-19T06:23:20.040Z,1006.83
2018-09-19T06:24:19.986Z,1006.77
2018-09-19T06:25:19.945Z,1006.75
2018-09-19T06:26:19.923Z,1006.72
2018-09-19T06:27:19.837Z,1006.76
2018-09-19T06:28:19.790Z,1006.79
2018-09-19T06:29:19.743Z,1006.74
2018-09-19T06:30:19.701Z,1006.77
2018-09-19T06:31:19.669Z,1006.78
2018-09-19T06:32:19.600Z,1006.78
2018-09-19T06:33:19.574Z,1006.75
2018-09-19T06:34:19.509Z,1006.76
2018-09-19T06:35:19.457Z,1006.76
2018-09-19T06:36:19.432Z,1006.74
2018-09-19T06:37:19.361Z,1006.71
2018-09-19T06:38:19.314Z,1006.69
2018-09-19T06:39:19.269Z,1006.70
2018-09-19T06:40:19.260Z,1006.68
2018-09-19T06:41:19.191Z,1006.65
2018-09-19T06:42:19.122Z,1006.61
2018-09-19T06:43:19.073Z,1006.60
2018-09-19T06:44:19.029Z,1006.58
2018-09-19T06:45:18.974Z,1006.60
2018-09-19T06:46:18.968Z,1006.61
2018-09-19T06:47:18.926Z,1006.61
2018-09-19T06:48:18.832Z,1006.65
2018-09-19T06:49:18.821Z,1006.68
2018-09-19T06:50:18.767Z,1006.63
2018-09-19T06:51:18.714Z,1006.65
2018-09-19T06:52:18.655Z,1006.65
2018-09-19T06:53:18.612Z,1006.63
2018-09-19T06:54:18.552Z,1006.65
2018-09-19T06:55:18.501Z,1006.64
2018-09-19T06:56:18.474Z,1006.59
2018-09-19T06:57:18.405Z,1006.61
2018-09-19T06:58:18.358Z,1006.57
2018-09-19T06:59:18.315Z,1006.58
2018-09-19T07:00:18.264Z,1006.59
2018-09-19T07:01:18.372Z,1006.52
2018-09-19T07:02:18.173Z,1006.51
2018-09-19T07:03:18.125Z,1006.51
2018-09-19T07:04:18.078Z,1006.47
2018-09-19T07:05:18.062Z,1006.50
2018-09-19T07:06:18.157Z,1006.48
2018-09-19T07:07:17.942Z,1006.50
2018-09-19T07:08:17.895Z,1006.47
2018-09-19T07:09:17.840Z,1006.49
2018-09-19T07:10:17.790Z,1006.48
2018-09-19T07:11:17.774Z,1006.52
2018-09-19T07:12:17.696Z,1006.50
2018-09-19T07:13:17.652Z,1006.53
2018-09-19T07:14:17.611Z,1006.54
2018-09-19T07:15:17.561Z,1006.53
2018-09-19T07:16:17.536Z,1006.53
2018-09-19T07:17:17.465Z,1006.54
2018-09-19T07:18:17.418Z,1006.54
2018-09-19T07:19:17.374Z,1006.55
2018-09-19T07:20:17.324Z,1006.56
2018-09-19T07:21:17.367Z,1006.58
2018-09-19T07:22:17.226Z,1006.55
2018-09-19T07:23:17.185Z,1006.54
2018-09-19T07:24:17.155Z,1006.52
2018-09-19T07:25:17.122Z,1006.47
2018-09-19T07:26:17.047Z,1006.46
2018-09-19T07:27:17.031Z,1006.44
2018-09-19T07:28:16.953Z,1006.44
2018-09-19T07:29:16.902Z,1006.41
2018-09-19T07:30:16.865Z,1006.42
2018-09-19T07:31:16.875Z,1006.40
2018-09-19T07:32:16.802Z,1006.44
2018-09-19T07:33:16.740Z,1006.42
2018-09-19T07:34:16.694Z,1006.38
2018-09-19T07:35:16.626Z,1006.36
2018-09-19T07:36:16.649Z,1006.35
2018-09-19T07:37:16.558Z,1006.31
2018-09-19T07:38:16.480Z,1006.31
2018-09-19T07:39:16.445Z,1006.31
2018-09-19T07:40:16.419Z,1006.28
2018-09-19T07:41:16.348Z,1006.29
2018-09-19T07:42:16.335Z,1006.26
2018-09-19T07:43:16.257Z,1006.31
2018-09-19T07:44:16.214Z,1006.30
2018-09-19T07:45:16.156Z,1006.29
2018-09-19T07:46:16.120Z,1006.31
2018-09-19T07:47:16.098Z,1006.33
2018-09-19T07:48:16.017Z,1006.35
2018-09-19T07:49:15.971Z,1006.37
2018-09-19T07:50:15.923Z,1006.37
2018-09-19T07:51:15.877Z,1006.45
2018-09-19T07:52:15.863Z,1006.44
2018-09-19T07:53:15.796Z,1006.47
2018-09-19T07:54:15.745Z,1006.46
2018-09-19T07:55:15.724Z,1006.47
2018-09-19T07:56:15.644Z,1006.47
2018-09-19T07:57:15.633Z,1006.49
2018-09-19T07:58:15.563Z,1006.45
2018-09-19T07:59:15.508Z,1006.45
2018-09-19T08:00:15.469Z,1006.43
2018-09-19T08:01:15.437Z,1006.43
2018-09-19T08:02:15.396Z,1006.46
2018-09-19T08:03:15.328Z,1006.46
2018-09-19T08:04:15.282Z,1006.43
2018-09-19T08:05:15.236Z,1006.46
2018-09-19T08:06:15.191Z,1006.50
2018-09-19T08:07:15.162Z,1006.52
2018-09-19T08:08:15.092Z,1006.52
2018-09-19T08:09:15.120Z,1006.49
2018-09-19T08:10:15.002Z,1006.50
2018-09-19T08:11:14.962Z,1006.48
2018-09-19T08:12:14.949Z,1006.50
2018-09-19T08:13:14.867Z,1006.51
2018-09-19T08:14:14.817Z,1006.52
2018-09-19T08:15:16.137Z,1006.51
2018-09-19T08:16:14.733Z,1006.55
2018-09-19T08:17:14.684Z,1006.51
2018-09-19T08:18:14.656Z,1006.52
2018-09-19T08:19:14.591Z,1006.48
2018-09-19T08:20:14.538Z,1006.46
2018-09-19T08:21:14.499Z,1006.46
2018-09-19T08:22:14.459Z,1006.47
2018-09-19T08:23:14.434Z,1006.50
2018-09-19T08:24:14.359Z,1006.48
2018-09-19T08:25:14.313Z,1006.52
2018-09-19T08:26:14.267Z,1006.50
2018-09-19T08:27:14.225Z,1006.52
2018-09-19T08:28:14.201Z,1006.52
2018-09-19T08:29:14.131Z,1006.49
2018-09-19T08:30:14.087Z,1006.50
2018-09-19T08:31:14.040Z,1006.48
2018-09-19T08:32:13.994Z,1006.54
2018-09-19T08:33:13.986Z,1006.57
2018-09-19T08:34:13.904Z,1006.59
2018-09-19T08:35:13.860Z,1006.60
2018-09-19T08:36:13.812Z,1006.63
2018-09-19T08:37:13.770Z,1006.64
2018-09-19T08:38:13.744Z,1006.60
2018-09-19T08:39:13.679Z,1006.66
2018-09-19T08:40:13.631Z,1006.64
2018-09-19T08:41:13.585Z,1006.59
2018-09-19T08:42:13.552Z,1006.56
2018-09-19T08:43:13.521Z,1006.57
2018-09-19T08:44:13.447Z,1006.55
2018-09-19T08:45:13.416Z,1006.59
2018-09-19T08:46:13.358Z,1006.63
2018-09-19T08:47:13.312Z,1006.60
2018-09-19T08:48:13.286Z,1006.61
2018-09-19T08:49:13.221Z,1006.61
2018-09-19T08:50:13.173Z,1006.58
2018-09-19T08:51:13.133Z,1006.55
2018-09-19T08:52:13.085Z,1006.58
2018-09-19T08:53:13.065Z,1006.59
2018-09-19T08:54:12.991Z,1006.55
2018-09-19T08:55:12.945Z,1006.50
2018-09-19T08:56:12.901Z,1006.49
2018-09-19T08:57:12.887Z,1006.50
2018-09-19T08:58:12.831Z,1006.53
2018-09-19T08:59:12.777Z,1006.54
2018-09-19T09:00:12.718Z,1006.48
2018-09-19T09:01:12.669Z,1006.52
2018-09-19T09:02:12.630Z,1006.49
2018-09-19T09:03:12.605Z,1006.48
2018-09-19T09:04:12.539Z,1006.41
2018-09-19T09:05:12.506Z,1006.41
2018-09-19T09:06:12.445Z,1006.35
2018-09-19T09:07:12.407Z,1006.38
2018-09-19T09:08:12.385Z,1006.38
2018-09-19T09:09:12.316Z,1006.41
2018-09-19T09:10:12.269Z,1006.44
2018-09-19T09:11:12.220Z,1006.47
2018-09-19T09:12:12.243Z,1006.47
2018-09-19T09:13:12.157Z,1006.48
2018-09-19T09:14:12.087Z,1006.50
2018-09-19T09:15:12.046Z,1006.51
2018-09-19T09:16:11.995Z,1006.51
2018-09-19T09:17:11.962Z,1006.57
2018-09-19T09:18:11.964Z,1006.60
2018-09-19T09:19:11.868Z,1006.59
2018-09-19T09:20:11.817Z,1006.56
2018-09-19T09:21:11.766Z,1006.59
2018-09-19T09:22:11.731Z,1006.57
2018-09-19T09:23:11.692Z,1006.54
2018-09-19T09:24:11.695Z,1006.56
2018-09-19T09:25:11.603Z,1006.56
2018-09-19T09:26:11.591Z,1006.51
2018-09-19T09:27:11.572Z,1006.48
2018-09-19T09:28:11.460Z,1006.45
2018-09-19T09:29:11.450Z,1006.44
2018-09-19T09:30:11.368Z,1006.41
2018-09-19T09:31:11.365Z,1006.37
2018-09-19T09:32:11.271Z,1006.34
2018-09-19T09:33:11.228Z,1006.28
2018-09-19T09:34:11.263Z,1006.27
2018-09-19T09:35:11.149Z,1006.30
2018-09-19T09:36:11.148Z,1006.27
2018-09-19T09:37:11.056Z,1006.31
2018-09-19T09:38:11.014Z,1006.24
2018-09-19T09:39:10.998Z,1006.22
2018-09-19T09:40:10.944Z,1006.22
2018-09-19T09:41:10.879Z,1006.20
2018-09-19T09:42:10.863Z,1006.21
2018-09-19T09:43:10.809Z,1006.20
2018-09-19T09:44:10.793Z,1006.23
2018-09-19T09:45:10.692Z,1006.15
2018-09-19T09:46:10.751Z,1006.08
2018-09-19T09:47:10.620Z,1006.08
2018-09-19T09:48:10.677Z,1006.06
2018-09-19T09:49:10.574Z,1006.02
2018-09-19T09:50:10.475Z,1006.01
2018-09-19T09:51:10.444Z,1005.97
2018-09-19T09:52:10.391Z,1005.98
2018-09-19T09:53:10.405Z,1005.99
2018-09-19T09:54:10.352Z,1005.99
2018-09-19T09:55:10.257Z,1006.03
2018-09-19T09:56:10.207Z,1005.99
2018-09-19T09:57:10.148Z,1005.94
2018-09-19T09:58:10.117Z,1005.93
2018-09-19T09:59:10.065Z,1005.98
2018-09-19T10:00:10.051Z,1005.95
2018-09-19T10:01:10.028Z,1005.97
2018-09-19T10:02:09.929Z,1005.95
2018-09-19T10:03:09.899Z,1005.90
2018-09-19T10:04:09.851Z,1005.91
2018-09-19T10:05:09.832Z,1005.89
2018-09-19T10:06:09.748Z,1005.92
2018-09-19T10:07:09.714Z,1005.94
2018-09-19T10:08:09.660Z,1005.91
2018-09-19T10:09:09.624Z,1005.96
2018-09-19T10:10:09.601Z,1005.97
2018-09-19T10:11:09.550Z,1005.94
2018-09-19T10:12:09.484Z,1005.95
2018-09-19T10:13:09.440Z,1005.99
2018-09-19T10:14:09.395Z,1006.00
2018-09-19T10:15:09.403Z,1005.95
2018-09-19T10:16:09.315Z,1005.93
2018-09-19T10:17:09.268Z,1005.89
2018-09-19T10:18:09.224Z,1005.91
2018-09-19T10:19:09.180Z,1005.93
2018-09-19T10:20:09.158Z,1005.86
2018-09-19T10:21:09.085Z,1005.85
2018-09-19T10:22:09.041Z,1005.91
2018-09-19T10:23:09.000Z,1005.89
2018-09-19T10:24:08.960Z,1005.91
2018-09-19T10:25:08.940Z,1005.86
2018-09-19T10:26:08.864Z,1005.82
2018-09-19T10:27:08.818Z,1005.74
2018-09-19T10:28:08.778Z,1005.68
2018-09-19T10:29:08.735Z,1005.75
2018-09-19T10:30:08.720Z,1005.76
2018-09-19T10:31:08.643Z,1005.76
2018-09-19T10:32:09.205Z,1005.70
2018-09-19T10:33:08.556Z,1005.72
2018-09-19T10:34:08.504Z,1005.71
2018-09-19T10:35:08.488Z,1005.76
2018-09-19T10:36:08.428Z,1005.70
2018-09-19T10:37:08.392Z,1005.73
2018-09-19T10:38:08.355Z,1005.76
2018-09-19T10:39:08.297Z,1005.80
2018-09-19T10:40:08.286Z,1005.77
2018-09-19T10:41:08.209Z,1005.74
2018-09-19T10:42:08.153Z,1005.74
2018-09-19T10:43:08.129Z,1005.73
2018-09-19T10:44:08.066Z,1005.72
2018-09-19T10:45:08.058Z,1005.65
2018-09-19T10:46:07.981Z,1005.57
2018-09-19T10:47:07.946Z,1005.59
2018-09-19T10:48:07.901Z,1005.58
2018-09-19T10:49:07.848Z,1005.53
2018-09-19T10:50:07.840Z,1005.51
2018-09-19T10:51:07.762Z,1005.52
2018-09-19T10:52:07.722Z,1005.47
2018-09-19T10:53:07.689Z,1005.38
2018-09-19T10:54:07.627Z,1005.38
2018-09-19T10:55:07.662Z,1005.38
2018-09-19T10:56:07.539Z,1005.33
2018-09-19T10:57:07.495Z,1005.32
2018-09-19T10:58:07.457Z,1005.31
2018-09-19T10:59:07.428Z,1005.27
2018-09-19T11:00:07.372Z,1005.28
2018-09-19T11:01:07.366Z,1005.24
2018-09-19T11:02:07.284Z,1005.27
2018-09-19T11:03:07.243Z,1005.26
2018-09-19T11:04:07.203Z,1005.27
2018-09-19T11:05:07.145Z,1005.23
2018-09-19T11:06:07.138Z,1005.24
2018-09-19T11:07:07.060Z,1005.23
2018-09-19T11:08:07.022Z,1005.20
2018-09-19T11:09:06.965Z,1005.18
2018-09-19T11:10:06.928Z,1005.17
2018-09-19T11:11:06.910Z,1005.18
2018-09-19T11:12:06.839Z,1005.28
2018-09-19T11:13:06.796Z,1005.11
2018-09-19T11:14:06.749Z,1005.19
2018-09-19T11:15:06.708Z,1005.19
2018-09-19T11:16:06.686Z,1005.21
2018-09-19T11:17:06.646Z,1005.15
2018-09-19T11:18:06.575Z,1005.18
2018-09-19T11:19:06.534Z,1005.14
2018-09-19T11:20:06.487Z,1005.19
2018-09-19T11:21:06.477Z,1005.22
2018-09-19T11:22:06.399Z,1005.24
2018-09-19T11:23:06.360Z,1005.17
2018-09-19T11:24:06.310Z,1005.22
2018-09-19T11:25:06.268Z,1005.17
2018-09-19T11:26:06.225Z,1005.13
2018-09-19T11:27:06.210Z,1005.15
2018-09-19T11:28:06.141Z,1005.09
2018-09-19T11:29:06.100Z,1005.11
2018-09-19T11:30:06.053Z,1005.13
2018-09-19T11:31:06.019Z,1005.14
2018-09-19T11:32:05.989Z,1005.12
2018-09-19T11:33:05.920Z,1005.12
2018-09-19T11:34:05.888Z,1005.14
2018-09-19T11:35:05.847Z,1005.14
2018-09-19T11:36:05.795Z,1005.16
2018-09-19T11:37:05.773Z,1005.23
2018-09-19T11:38:05.710Z,1005.25
2018-09-19T11:39:05.665Z,1005.27
2018-09-19T11:40:05.619Z,1005.24
2018-09-19T11:41:05.577Z,1005.23
2018-09-19T11:42:05.556Z,1005.26
2018-09-19T11:43:05.493Z,1005.24
2018-09-19T11:44:05.446Z,1005.24
2018-09-19T11:45:05.407Z,1005.21
2018-09-19T11:46:05.363Z,1005.26
2018-09-19T11:47:05.364Z,1005.27
2018-09-19T11:48:05.277Z,1005.24
2018-09-19T11:49:05.237Z,1005.20
2018-09-19T11:50:05.188Z,1005.18
2018-09-19T11:51:05.154Z,1005.23
2018-09-19T11:52:05.129Z,1005.20
2018-09-19T11:53:05.061Z,1005.25
2018-09-19T11:54:05.020Z,1005.20
2018-09-19T11:55:04.976Z,1005.15
2018-09-19T11:56:04.931Z,1005.13
2018-09-19T11:57:04.920Z,1005.15
2018-09-19T11:58:04.884Z,1005.16
2018-09-19T11:59:04.802Z,1005.21
2018-09-19T12:00:04.763Z,1005.13
2018-09-19T12:01:04.716Z,1005.20
2018-09-19T12:02:04.751Z,1005.16
2018-09-19T12:03:04.627Z,1005.14
2018-09-19T12:04:04.586Z,1005.15
2018-09-19T12:05:04.540Z,1005.24